TFV009 GMAD-EPKK
Flight info
| Callsign | TFV009 |
|---|---|
| Flight time | N/A |
| Altitude | 34000 |
| Route | MOGBA UH400 AGOVA UM372 FES UG850 BERUM/N0464F360 DCT GONZA DCT AMR N860 BEGOX M445 SOPET M985 LUMAS DCT NIBIK DCT STP DCT RAPED DCT PIGOS DCT EKSID DCT NOSTA DCT NOPMU DCT LAGEN DCT ROBAS DCT NOBMI DCT MALUG/N0457F370 DCT INGID DCT STO DCT LEDVA DCT NETIR |
| Aircraft | B738/M-SDE2E3FGHIRWXY/LB1 |
Departure
| Time | 2026-04-24 15:47 |
|---|---|
| Airport | Al Massira Airport (GMAD) |
Arrival
| Time | N/A |
|---|---|
| Airport | Kraków John Paul II International Airport (EPKK) |
| Time | Latitude | Longitude | Altitude | Speed | Heading |
|---|---|---|---|---|---|
| 2026-04-24 15:46 | 30.32238 | -9.40301 | 230 ft | 114 kts | 269° |
| 2026-04-24 15:46 | 30.32274 | -9.41467 | 251 ft | 173 kts | 270° |
| 2026-04-24 15:46 | 30.32321 | -9.42962 | 683 ft | 198 kts | 271° |
| 2026-04-24 15:47 | 30.32401 | -9.44616 | 1414 ft | 198 kts | 269° |
| 2026-04-24 15:47 | 30.32476 | -9.46140 | 2483 ft | 186 kts | 271° |
| 2026-04-24 15:47 | 30.32551 | -9.47741 | 2765 ft | 216 kts | 279° |
| 2026-04-24 15:47 | 30.32375 | -9.49596 | 2957 ft | 253 kts | 251° |
| 2026-04-24 15:48 | 30.31296 | -9.51341 | 3379 ft | 277 kts | 231° |
| 2026-04-24 15:48 | 30.29931 | -9.52975 | 4052 ft | 285 kts | 230° |
| 2026-04-24 15:48 | 30.28555 | -9.54608 | 4974 ft | 282 kts | 229° |
| 2026-04-24 15:48 | 30.27342 | -9.56355 | 5853 ft | 276 kts | 248° |
| 2026-04-24 15:49 | 30.26768 | -9.58454 | 6572 ft | 276 kts | 258° |
| 2026-04-24 15:49 | 30.26306 | -9.60630 | 7278 ft | 279 kts | 259° |
| 2026-04-24 15:49 | 30.25836 | -9.62814 | 8061 ft | 280 kts | 258° |
| 2026-04-24 15:49 | 30.25358 | -9.65007 | 8844 ft | 281 kts | 260° |
| 2026-04-24 15:50 | 30.24877 | -9.67196 | 9653 ft | 282 kts | 260° |
| 2026-04-24 15:50 | 30.24563 | -9.69443 | 10239 ft | 285 kts | 279° |
| 2026-04-24 15:50 | 30.25222 | -9.71610 | 10507 ft | 296 kts | 308° |
| 2026-04-24 15:50 | 30.26847 | -9.73147 | 10697 ft | 316 kts | 333° |
| 2026-04-24 15:51 | 30.28895 | -9.74250 | 10907 ft | 334 kts | 334° |